sensor_id;sensor_type;location;lat;lon;timestamp;pressure;altitude;pressure_sealevel;temperature;humidity
82951;BME280;72737;53.332;6.514;2023-12-04T00:01:30;101368.13;;;15.00;56.38
82951;BME280;72737;53.332;6.514;2023-12-04T00:03:57;101353.09;;;14.98;56.11
82951;BME280;72737;53.332;6.514;2023-12-04T00:06:24;101352.47;;;15.06;56.43
82951;BME280;72737;53.332;6.514;2023-12-04T00:08:49;101325.81;;;14.88;56.19
82951;BME280;72737;53.332;6.514;2023-12-04T00:11:16;101340.47;;;15.02;56.42
82951;BME280;72737;53.332;6.514;2023-12-04T00:13:42;101341.00;;;15.04;56.73
82951;BME280;72737;53.332;6.514;2023-12-04T00:16:08;101340.19;;;15.03;56.91
82951;BME280;72737;53.332;6.514;2023-12-04T00:18:33;101335.81;;;15.02;56.33
82951;BME280;72737;53.332;6.514;2023-12-04T00:20:59;101335.50;;;15.04;57.04
82951;BME280;72737;53.332;6.514;2023-12-04T00:23:24;101330.34;;;15.02;56.75
82951;BME280;72737;53.332;6.514;2023-12-04T00:25:49;101323.00;;;14.98;56.46
82951;BME280;72737;53.332;6.514;2023-12-04T00:28:15;101318.88;;;15.00;57.00
82951;BME280;72737;53.332;6.514;2023-12-04T00:30:41;101319.13;;;14.99;56.87
82951;BME280;72737;53.332;6.514;2023-12-04T00:33:06;101310.41;;;14.97;56.40
82951;BME280;72737;53.332;6.514;2023-12-04T00:35:32;101302.50;;;14.95;56.93
82951;BME280;72737;53.332;6.514;2023-12-04T00:37:57;101300.34;;;14.92;56.59
82951;BME280;72737;53.332;6.514;2023-12-04T00:40:25;101298.94;;;14.95;57.14
82951;BME280;72737;53.332;6.514;2023-12-04T00:42:51;101298.09;;;14.94;56.68
82951;BME280;72737;53.332;6.514;2023-12-04T00:45:17;101303.59;;;14.94;56.48
82951;BME280;72737;53.332;6.514;2023-12-04T00:47:42;101300.34;;;14.92;56.43
82951;BME280;72737;53.332;6.514;2023-12-04T00:50:08;101301.97;;;14.93;57.17
82951;BME280;72737;53.332;6.514;2023-12-04T00:52:33;101290.22;;;14.93;56.49
82951;BME280;72737;53.332;6.514;2023-12-04T00:54:59;101293.50;;;14.90;56.56
82951;BME280;72737;53.332;6.514;2023-12-04T00:57:25;101291.06;;;14.88;56.97
82951;BME280;72737;53.332;6.514;2023-12-04T00:59:50;101293.81;;;14.88;56.69
82951;BME280;72737;53.332;6.514;2023-12-04T01:02:16;101293.00;;;14.88;56.98
82951;BME280;72737;53.332;6.514;2023-12-04T01:04:51;101264.09;;;14.77;56.98
82951;BME280;72737;53.332;6.514;2023-12-04T01:07:17;101288.63;;;14.87;57.00
82951;BME280;72737;53.332;6.514;2023-12-04T01:09:42;101283.16;;;14.87;57.45
82951;BME280;72737;53.332;6.514;2023-12-04T01:12:07;101279.03;;;14.84;56.49
82951;BME280;72737;53.332;6.514;2023-12-04T01:14:33;101273.88;;;14.83;57.24
82951;BME280;72737;53.332;6.514;2023-12-04T01:16:58;101272.25;;;14.82;56.73
82951;BME280;72737;53.332;6.514;2023-12-04T01:19:25;101261.84;;;14.79;56.73
82951;BME280;72737;53.332;6.514;2023-12-04T01:21:59;101254.50;;;14.74;57.30
82951;BME280;72737;53.332;6.514;2023-12-04T01:24:25;101261.91;;;14.74;56.61
82951;BME280;72737;53.332;6.514;2023-12-04T01:26:51;101265.47;;;14.74;56.71
82951;BME280;72737;53.332;6.514;2023-12-04T01:29:17;101271.16;;;14.83;57.01
82951;BME280;72737;53.332;6.514;2023-12-04T01:31:42;101261.91;;;14.74;57.18
82951;BME280;72737;53.332;6.514;2023-12-04T01:34:08;101253.97;;;14.77;56.98
82951;BME280;72737;53.332;6.514;2023-12-04T01:36:33;101256.38;;;14.79;57.09
82951;BME280;72737;53.332;6.514;2023-12-04T01:39:00;101244.94;;;14.77;56.90
82951;BME280;72737;53.332;6.514;2023-12-04T01:41:25;101249.53;;;14.81;56.91
82951;BME280;72737;53.332;6.514;2023-12-04T01:43:50;101246.03;;;14.76;56.81
82951;BME280;72737;53.332;6.514;2023-12-04T01:46:17;101235.66;;;14.73;56.69
82951;BME280;72737;53.332;6.514;2023-12-04T01:48:45;101244.97;;;14.72;56.30
82951;BME280;72737;53.332;6.514;2023-12-04T01:51:11;101239.22;;;14.73;56.61
82951;BME280;72737;53.332;6.514;2023-12-04T01:53:39;101238.97;;;14.70;56.07
82951;BME280;72737;53.332;6.514;2023-12-04T01:56:06;101239.81;;;14.65;56.94
82951;BME280;72737;53.332;6.514;2023-12-04T01:58:32;101242.28;;;14.67;56.86
82951;BME280;72737;53.332;6.514;2023-12-04T02:00:58;101238.78;;;14.61;56.90
82951;BME280;72737;53.332;6.514;2023-12-04T02:03:23;101228.06;;;14.65;56.22
82951;BME280;72737;53.332;6.514;2023-12-04T02:05:51;101222.94;;;14.58;56.91
82951;BME280;72737;53.332;6.514;2023-12-04T02:08:16;101221.09;;;14.53;56.44
82951;BME280;72737;53.332;6.514;2023-12-04T02:10:42;101221.09;;;14.53;57.15
82951;BME280;72737;53.332;6.514;2023-12-04T02:13:08;101215.31;;;14.55;57.02
82951;BME280;72737;53.332;6.514;2023-12-04T02:15:33;101219.44;;;14.52;56.87
82951;BME280;72737;53.332;6.514;2023-12-04T02:18:06;101216.72;;;14.52;57.36
82951;BME280;72737;53.332;6.514;2023-12-04T02:20:34;101223.28;;;14.51;57.07
82951;BME280;72737;53.332;6.514;2023-12-04T02:23:01;101213.75;;;14.44;57.40
82951;BME280;72737;53.332;6.514;2023-12-04T02:25:27;101216.75;;;14.47;57.37
82951;BME280;72737;53.332;6.514;2023-12-04T02:27:53;101206.09;;;14.46;56.63
82951;BME280;72737;53.332;6.514;2023-12-04T02:30:38;101205.81;;;14.47;57.48
82951;BME280;72737;53.332;6.514;2023-12-04T02:33:26;101195.47;;;14.39;57.33
82951;BME280;72737;53.332;6.514;2023-12-04T02:35:53;101161.72;;;14.20;57.63
82951;BME280;72737;53.332;6.514;2023-12-04T02:38:37;101164.41;;;14.25;57.19
82951;BME280;72737;53.332;6.514;2023-12-04T02:41:14;101152.41;;;14.21;56.77
82951;BME280;72737;53.332;6.514;2023-12-04T02:47:20;101143.97;;;14.17;57.17
82951;BME280;72737;53.332;6.514;2023-12-04T02:50:02;101154.06;;;14.22;56.74
82951;BME280;72737;53.332;6.514;2023-12-04T02:52:31;101182.63;;;14.40;56.95
82951;BME280;72737;53.332;6.514;2023-12-04T02:54:59;101161.63;;;14.30;56.91
82951;BME280;72737;53.332;6.514;2023-12-04T02:57:25;101176.66;;;14.33;57.20
82951;BME280;72737;53.332;6.514;2023-12-04T03:00:03;101146.94;;;14.21;57.08
82951;BME280;72737;53.332;6.514;2023-12-04T03:02:58;101164.91;;;14.32;57.54
82951;BME280;72737;53.332;6.514;2023-12-04T03:05:55;101169.78;;;14.35;57.51
82951;BME280;72737;53.332;6.514;2023-12-04T03:08:21;101168.72;;;14.36;57.38
82951;BME280;72737;53.332;6.514;2023-12-04T03:10:46;101156.16;;;14.30;57.90
82951;BME280;72737;53.332;6.514;2023-12-04T03:13:12;101159.66;;;14.36;57.44
82951;BME280;72737;53.332;6.514;2023-12-04T03:15:37;101154.47;;;14.34;56.88
82951;BME280;72737;53.332;6.514;2023-12-04T03:18:02;101150.13;;;14.33;57.71
82951;BME280;72737;53.332;6.514;2023-12-04T03:20:29;101136.78;;;14.27;57.42
82951;BME280;72737;53.332;6.514;2023-12-04T03:22:55;101134.34;;;14.25;57.35
82951;BME280;72737;53.332;6.514;2023-12-04T03:25:24;101139.75;;;14.30;57.64
82951;BME280;72737;53.332;6.514;2023-12-04T03:27:50;101129.97;;;14.24;57.21
82951;BME280;72737;53.332;6.514;2023-12-04T03:30:15;101134.28;;;14.30;56.88
82951;BME280;72737;53.332;6.514;2023-12-04T03:32:41;101137.28;;;14.29;57.25
82951;BME280;72737;53.332;6.514;2023-12-04T03:35:15;101130.72;;;14.30;57.76
82951;BME280;72737;53.332;6.514;2023-12-04T03:37:41;101131.03;;;14.28;56.98
82951;BME280;72737;53.332;6.514;2023-12-04T03:40:07;101084.53;;;13.99;57.76
82951;BME280;72737;53.332;6.514;2023-12-04T03:42:34;101119.66;;;14.16;57.57
82951;BME280;72737;53.332;6.514;2023-12-04T03:44:59;101121.47;;;14.26;56.89
82951;BME280;72737;53.332;6.514;2023-12-04T03:47:26;101117.41;;;14.23;56.78
82951;BME280;72737;53.332;6.514;2023-12-04T03:49:52;101104.03;;;14.22;57.15
82951;BME280;72737;53.332;6.514;2023-12-04T03:52:18;101104.84;;;14.22;57.45
82951;BME280;72737;53.332;6.514;2023-12-04T03:54:43;101098.56;;;14.22;57.15
82951;BME280;72737;53.332;6.514;2023-12-04T03:57:09;101099.94;;;14.19;57.08
82951;BME280;72737;53.332;6.514;2023-12-04T03:59:40;101098.84;;;14.20;57.19
82951;BME280;72737;53.332;6.514;2023-12-04T04:02:05;101100.75;;;14.19;57.47
82951;BME280;72737;53.332;6.514;2023-12-04T04:04:31;101098.34;;;14.18;57.70
82951;BME280;72737;53.332;6.514;2023-12-04T04:06:57;101101.06;;;14.18;56.81
82951;BME280;72737;53.332;6.514;2023-12-04T04:09:22;101091.78;;;14.14;57.50
82951;BME280;72737;53.332;6.514;2023-12-04T04:11:48;101089.31;;;14.17;56.88
82951;BME280;72737;53.332;6.514;2023-12-04T04:14:13;101095.28;;;14.19;57.06
82951;BME280;72737;53.332;6.514;2023-12-04T04:16:39;101090.41;;;14.16;57.15
82951;BME280;72737;53.332;6.514;2023-12-04T04:19:06;101096.16;;;14.15;57.31
82951;BME280;72737;53.332;6.514;2023-12-04T04:21:31;101091.50;;;14.15;56.87
82951;BME280;72737;53.332;6.514;2023-12-04T04:23:57;101096.16;;;14.15;57.02
82951;BME280;72737;53.332;6.514;2023-12-04T04:26:22;101085.50;;;14.13;57.49
82951;BME280;72737;53.332;6.514;2023-12-04T04:28:49;101090.97;;;14.13;57.30
82951;BME280;72737;53.332;6.514;2023-12-04T04:31:14;101089.34;;;14.12;57.74
82951;BME280;72737;53.332;6.514;2023-12-04T04:33:40;101086.38;;;14.09;57.20
82951;BME280;72737;53.332;6.514;2023-12-04T04:36:09;101086.38;;;14.09;56.84
82951;BME280;72737;53.332;6.514;2023-12-04T04:38:34;101088.53;;;14.12;57.20
82951;BME280;72737;53.332;6.514;2023-12-04T04:41:01;101078.97;;;14.09;56.89
82951;BME280;72737;53.332;6.514;2023-12-04T04:43:26;101075.78;;;14.02;57.38
82951;BME280;72737;53.332;6.514;2023-12-04T04:45:53;101073.28;;;14.06;57.46
82951;BME280;72737;53.332;6.514;2023-12-04T04:48:18;101068.38;;;14.08;56.84
82951;BME280;72737;53.332;6.514;2023-12-04T04:50:45;101062.63;;;14.04;57.00
82951;BME280;72737;53.332;6.514;2023-12-04T04:53:10;101053.63;;;14.04;57.25
82951;BME280;72737;53.332;6.514;2023-12-04T04:55:36;101059.63;;;14.06;57.10
82951;BME280;72737;53.332;6.514;2023-12-04T04:58:02;101048.16;;;14.04;57.21
82951;BME280;72737;53.332;6.514;2023-12-04T05:00:27;101050.38;;;14.02;57.18
82951;BME280;72737;53.332;6.514;2023-12-04T05:02:53;101044.91;;;14.02;56.81
82951;BME280;72737;53.332;6.514;2023-12-04T05:05:20;101041.59;;;14.05;56.58
82951;BME280;72737;53.332;6.514;2023-12-04T05:07:45;101038.63;;;14.01;56.58
82951;BME280;72737;53.332;6.514;2023-12-04T05:10:11;101042.19;;;14.02;57.25
82951;BME280;72737;53.332;6.514;2023-12-04T05:12:36;101043.03;;;13.97;56.73
82951;BME280;72737;53.332;6.514;2023-12-04T05:15:02;101046.28;;;13.99;57.41
82951;BME280;72737;53.332;6.514;2023-12-04T05:17:28;101041.19;;;13.93;56.87
82951;BME280;72737;53.332;6.514;2023-12-04T05:19:54;101033.44;;;14.00;57.26
82951;BME280;72737;53.332;6.514;2023-12-04T05:22:30;101034.53;;;13.99;57.27
82951;BME280;72737;53.332;6.514;2023-12-04T05:24:55;101022.28;;;13.96;57.44
82951;BME280;72737;53.332;6.514;2023-12-04T05:27:21;101023.38;;;13.95;57.32
82951;BME280;72737;53.332;6.514;2023-12-04T05:29:46;101024.47;;;13.94;57.26
82951;BME280;72737;53.332;6.514;2023-12-04T05:32:12;101017.69;;;13.92;56.64
82951;BME280;72737;53.332;6.514;2023-12-04T05:34:38;101022.06;;;13.93;56.74
82951;BME280;72737;53.332;6.514;2023-12-04T05:37:03;101007.56;;;13.92;57.19
82951;BME280;72737;53.332;6.514;2023-12-04T05:39:29;101006.53;;;13.83;57.46
82951;BME280;72737;53.332;6.514;2023-12-04T05:41:56;101000.81;;;13.85;56.90
82951;BME280;72737;53.332;6.514;2023-12-04T05:44:28;101015.50;;;13.89;56.82
82951;BME280;72737;53.332;6.514;2023-12-04T05:46:54;101002.97;;;13.88;56.68
82951;BME280;72737;53.332;6.514;2023-12-04T05:49:19;101004.25;;;13.95;58.60
82951;BME280;72737;53.332;6.514;2023-12-04T05:51:44;101002.28;;;14.01;57.19
82951;BME280;72737;53.332;6.514;2023-12-04T05:54:11;101010.44;;;14.06;57.72
82951;BME280;72737;53.332;6.514;2023-12-04T05:56:36;101000.16;;;13.98;57.95
82951;BME280;72737;53.332;6.514;2023-12-04T05:59:21;100996.09;;;13.90;58.15
82951;BME280;72737;53.332;6.514;2023-12-04T06:01:48;100997.41;;;13.98;58.08
82951;BME280;72737;53.332;6.514;2023-12-04T06:04:14;100995.19;;;14.00;57.62
82951;BME280;72737;53.332;6.514;2023-12-04T06:06:39;100995.47;;;13.98;57.70
82951;BME280;72737;53.332;6.514;2023-12-04T06:09:05;100995.72;;;14.02;57.32
82951;BME280;72737;53.332;6.514;2023-12-04T06:11:31;100990.53;;;14.00;57.89
82951;BME280;72737;53.332;6.514;2023-12-04T06:13:57;100984.31;;;13.95;57.71
82951;BME280;72737;53.332;6.514;2023-12-04T06:16:22;100988.91;;;13.99;57.30
82951;BME280;72737;53.332;6.514;2023-12-04T06:18:47;100982.97;;;13.92;57.97
82951;BME280;72737;53.332;6.514;2023-12-04T06:21:14;100985.47;;;13.89;57.61
82951;BME280;72737;53.332;6.514;2023-12-04T06:23:43;100987.63;;;13.92;57.80
82951;BME280;72737;53.332;6.514;2023-12-04T06:26:09;100976.75;;;13.87;57.52
82951;BME280;72737;53.332;6.514;2023-12-04T06:28:35;100959.38;;;13.78;57.83
82951;BME280;72737;53.332;6.514;2023-12-04T06:31:10;100960.97;;;13.79;57.49
82951;BME280;72737;53.332;6.514;2023-12-04T06:33:36;100969.72;;;13.81;57.70
82951;BME280;72737;53.332;6.514;2023-12-04T06:36:04;100962.59;;;13.80;57.64
82951;BME280;72737;53.332;6.514;2023-12-04T06:38:32;100964.84;;;13.78;57.23
82951;BME280;72737;53.332;6.514;2023-12-04T06:41:01;100962.59;;;13.80;57.58
82951;BME280;72737;53.332;6.514;2023-12-04T06:43:27;100964.53;;;13.79;57.06
82951;BME280;72737;53.332;6.514;2023-12-04T06:45:53;100964.00;;;13.77;57.08
82951;BME280;72737;53.332;6.514;2023-12-04T06:48:22;100957.19;;;13.74;57.69
82951;BME280;72737;53.332;6.514;2023-12-04T06:50:48;100953.38;;;13.75;57.27
82951;BME280;72737;53.332;6.514;2023-12-04T06:53:13;100950.09;;;13.73;57.73
82951;BME280;72737;53.332;6.514;2023-12-04T06:55:39;100949.53;;;13.77;57.66
82951;BME280;72737;53.332;6.514;2023-12-04T06:58:04;100937.78;;;13.76;56.95
82951;BME280;72737;53.332;6.514;2023-12-04T07:00:30;100929.38;;;13.72;57.38
82951;BME280;72737;53.332;6.514;2023-12-04T07:02:55;100952.22;;;13.82;58.03
82951;BME280;72737;53.332;6.514;2023-12-04T07:05:21;100949.66;;;13.90;58.48
82951;BME280;72737;53.332;6.514;2023-12-04T07:07:47;100946.22;;;13.80;57.84
82951;BME280;72737;53.332;6.514;2023-12-04T07:10:13;100951.16;;;13.78;58.33
82951;BME280;72737;53.332;6.514;2023-12-04T07:12:41;100945.13;;;13.81;57.27
82951;BME280;72737;53.332;6.514;2023-12-04T07:15:07;100941.34;;;13.77;57.32
82951;BME280;72737;53.332;6.514;2023-12-04T07:17:33;100939.44;;;13.77;57.28
82951;BME280;72737;53.332;6.514;2023-12-04T07:19:58;100939.13;;;13.79;57.65
82951;BME280;72737;53.332;6.514;2023-12-04T07:22:24;100935.28;;;13.80;57.42
82951;BME280;72737;53.332;6.514;2023-12-04T07:24:49;100924.72;;;13.73;57.79
82951;BME280;72737;53.332;6.514;2023-12-04T07:27:14;100924.19;;;13.71;57.76
82951;BME280;72737;53.332;6.514;2023-12-04T07:29:41;100923.41;;;13.65;57.67
82951;BME280;72737;53.332;6.514;2023-12-04T07:32:06;100924.53;;;13.64;57.28
82951;BME280;72737;53.332;6.514;2023-12-04T07:34:32;100918.81;;;13.61;57.75
82951;BME280;72737;53.332;6.514;2023-12-04T07:36:57;100919.66;;;13.61;58.30
82951;BME280;72737;53.332;6.514;2023-12-04T07:39:23;100913.59;;;13.64;57.71
82951;BME280;72737;53.332;6.514;2023-12-04T07:41:48;100905.13;;;13.66;58.39
82951;BME280;72737;53.332;6.514;2023-12-04T07:44:14;100909.66;;;13.75;57.89
82951;BME280;72737;53.332;6.514;2023-12-04T07:46:40;100910.25;;;13.72;57.87
82951;BME280;72737;53.332;6.514;2023-12-04T07:49:06;100902.56;;;13.74;57.67
82951;BME280;72737;53.332;6.514;2023-12-04T07:51:31;100911.31;;;13.77;56.99
82951;BME280;72737;53.332;6.514;2023-12-04T07:53:57;100916.75;;;13.77;57.43
82951;BME280;72737;53.332;6.514;2023-12-04T07:56:24;100909.66;;;13.75;57.39
82951;BME280;72737;53.332;6.514;2023-12-04T07:58:49;100911.31;;;13.77;57.33
82951;BME280;72737;53.332;6.514;2023-12-04T08:01:17;100903.66;;;13.73;57.66
82951;BME280;72737;53.332;6.514;2023-12-04T08:03:43;100900.94;;;13.73;57.49
82951;BME280;72737;53.332;6.514;2023-12-04T08:06:08;100903.16;;;13.71;57.81
82951;BME280;72737;53.332;6.514;2023-12-04T08:08:34;100897.16;;;13.69;57.51
82951;BME280;72737;53.332;6.514;2023-12-04T08:10:59;100899.34;;;13.72;57.50
82951;BME280;72737;53.332;6.514;2023-12-04T08:13:25;100903.16;;;13.71;58.32
82951;BME280;72737;53.332;6.514;2023-12-04T08:15:50;100899.34;;;13.72;57.65
82951;BME280;72737;53.332;6.514;2023-12-04T08:18:16;100894.16;;;13.71;58.20
82951;BME280;72737;53.332;6.514;2023-12-04T08:20:41;100900.44;;;13.71;58.31
82951;BME280;72737;53.332;6.514;2023-12-04T08:23:08;100900.44;;;13.71;57.87
82951;BME280;72737;53.332;6.514;2023-12-04T08:25:34;100888.69;;;13.71;58.27
82951;BME280;72737;53.332;6.514;2023-12-04T08:28:01;100897.06;;;13.80;58.35
82951;BME280;72737;53.332;6.514;2023-12-04T08:30:27;100892.69;;;13.79;57.81
82951;BME280;72737;53.332;6.514;2023-12-04T08:32:53;100890.22;;;13.82;57.47
82951;BME280;72737;53.332;6.514;2023-12-04T08:35:19;100890.97;;;13.88;57.79
82951;BME280;72737;53.332;6.514;2023-12-04T08:37:45;100894.22;;;13.90;58.01
82951;BME280;72737;53.332;6.514;2023-12-04T08:40:10;100890.91;;;13.93;57.47
82951;BME280;72737;53.332;6.514;2023-12-04T08:42:37;100883.22;;;13.95;57.58
82951;BME280;72737;53.332;6.514;2023-12-04T08:45:03;100888.06;;;14.03;57.12
82951;BME280;72737;53.332;6.514;2023-12-04T08:47:31;100891.53;;;14.08;57.18
82951;BME280;72737;53.332;6.514;2023-12-04T08:49:57;100886.31;;;14.12;57.05
82951;BME280;72737;53.332;6.514;2023-12-04T08:52:22;100892.81;;;14.16;57.17
82951;BME280;72737;53.332;6.514;2023-12-04T08:54:48;100891.94;;;14.21;56.62
82951;BME280;72737;53.332;6.514;2023-12-04T08:57:14;100892.41;;;14.28;56.86
82951;BME280;72737;53.332;6.514;2023-12-04T08:59:39;100894.00;;;14.29;56.64
82951;BME280;72737;53.332;6.514;2023-12-04T09:02:05;100892.59;;;14.36;56.72
82951;BME280;72737;53.332;6.514;2023-12-04T09:04:31;100882.91;;;14.44;56.34
82951;BME280;72737;53.332;6.514;2023-12-04T09:06:57;100875.44;;;14.49;56.40
82951;BME280;72737;53.332;6.514;2023-12-04T10:43:34;100824.81;;;14.52;56.12
82951;BME280;72737;53.332;6.514;2023-12-04T10:46:00;100823.47;;;14.49;56.00
82951;BME280;72737;53.332;6.514;2023-12-04T10:48:25;100812.03;;;14.47;56.29
82951;BME280;72737;53.332;6.514;2023-12-04T10:50:51;100803.31;;;14.45;56.73
82951;BME280;72737;53.332;6.514;2023-12-04T10:53:18;100784.31;;;14.35;56.32
82951;BME280;72737;53.332;6.514;2023-12-04T10:55:44;100799.03;;;14.39;56.41
82951;BME280;72737;53.332;6.514;2023-12-04T10:58:12;100797.94;;;14.40;56.12
82951;BME280;72737;53.332;6.514;2023-12-04T11:00:48;100794.75;;;14.33;56.74
82951;BME280;72737;53.332;6.514;2023-12-04T11:03:21;100795.53;;;14.34;56.25
82951;BME280;72737;53.332;6.514;2023-12-04T11:05:55;100785.19;;;14.31;56.71
82951;BME280;72737;53.332;6.514;2023-12-04T11:08:21;100786.97;;;14.22;56.75
82951;BME280;72737;53.332;6.514;2023-12-04T11:10:56;100786.59;;;14.28;56.43
82951;BME280;72737;53.332;6.514;2023-12-04T11:13:27;100782.00;;;14.24;56.79
82951;BME280;72737;53.332;6.514;2023-12-04T11:18:43;100772.41;;;14.26;56.07
82951;BME280;72737;53.332;6.514;2023-12-04T11:21:10;100764.75;;;14.28;55.90
82951;BME280;72737;53.332;6.514;2023-12-04T11:23:37;100764.28;;;14.21;56.17
82951;BME280;72737;53.332;6.514;2023-12-04T11:26:03;100765.91;;;14.22;56.54
82951;BME280;72737;53.332;6.514;2023-12-04T11:28:31;100760.44;;;14.22;56.17
82951;BME280;72737;53.332;6.514;2023-12-04T11:30:58;100761.75;;;14.25;55.89
82951;BME280;72737;53.332;6.514;2023-12-04T11:33:24;100756.69;;;14.18;56.27
82951;BME280;72737;53.332;6.514;2023-12-04T11:35:50;100760.00;;;14.15;56.06
82951;BME280;72737;53.332;6.514;2023-12-04T11:38:19;100753.16;;;14.17;55.94
82951;BME280;72737;53.332;6.514;2023-12-04T11:40:46;100756.44;;;14.14;56.01
82951;BME280;72737;53.332;6.514;2023-12-04T11:45:49;100749.66;;;14.12;56.50
82951;BME280;72737;53.332;6.514;2023-12-04T11:48:15;100740.94;;;14.10;55.92
82951;BME280;72737;53.332;6.514;2023-12-04T11:50:43;100736.56;;;14.09;55.93
82951;BME280;72737;53.332;6.514;2023-12-04T11:53:10;100739.91;;;14.06;55.99
82951;BME280;72737;53.332;6.514;2023-12-04T11:55:40;100730.38;;;14.03;56.07
82951;BME280;72737;53.332;6.514;2023-12-04T11:58:09;100725.72;;;14.04;56.07
82951;BME280;72737;53.332;6.514;2023-12-04T12:00:35;100723.53;;;14.06;56.41
82951;BME280;72737;53.332;6.514;2023-12-04T12:03:02;100723.00;;;14.04;55.88
82951;BME280;72737;53.332;6.514;2023-12-04T12:05:30;100721.16;;;13.99;56.33
82951;BME280;72737;53.332;6.514;2023-12-04T12:07:56;100715.19;;;13.97;56.15
82951;BME280;72737;53.332;6.514;2023-12-04T12:10:21;100717.59;;;13.99;56.33
82951;BME280;72737;53.332;6.514;2023-12-04T12:12:47;100715.69;;;13.99;55.92
82951;BME280;72737;53.332;6.514;2023-12-04T12:15:13;100709.41;;;13.99;56.13
82951;BME280;72737;53.332;6.514;2023-12-04T12:17:40;100712.72;;;13.96;55.91
82951;BME280;72737;53.332;6.514;2023-12-04T12:20:09;100711.09;;;13.95;56.01
82951;BME280;72737;53.332;6.514;2023-12-04T12:22:36;100716.56;;;13.95;55.71
82951;BME280;72737;53.332;6.514;2023-12-04T12:25:04;100695.00;;;13.93;56.50
82951;BME280;72737;53.332;6.514;2023-12-04T12:27:30;100704.63;;;13.91;56.18
82951;BME280;72737;53.332;6.514;2023-12-04T12:30:02;100702.69;;;13.91;56.31
82951;BME280;72737;53.332;6.514;2023-12-04T12:32:28;100693.41;;;13.92;56.26
82951;BME280;72737;53.332;6.514;2023-12-04T12:34:54;100695.16;;;13.83;56.41
82951;BME280;72737;53.332;6.514;2023-12-04T12:37:20;100685.44;;;13.77;55.91
82951;BME280;72737;53.332;6.514;2023-12-04T12:39:46;100688.09;;;13.82;56.36
82951;BME280;72737;53.332;6.514;2023-12-04T12:42:11;100683.19;;;13.79;56.27
82951;BME280;72737;53.332;6.514;2023-12-04T12:44:46;100685.09;;;13.79;56.41
82951;BME280;72737;53.332;6.514;2023-12-04T12:47:14;100681.28;;;13.80;55.95
82951;BME280;72737;53.332;6.514;2023-12-04T12:49:40;100671.53;;;13.73;55.73
82951;BME280;72737;53.332;6.514;2023-12-04T12:52:05;100672.13;;;13.70;56.36
82951;BME280;72737;53.332;6.514;2023-12-04T12:54:35;100671.59;;;13.68;55.83
82951;BME280;72737;53.332;6.514;2023-12-04T12:57:01;100663.13;;;13.70;56.17
82951;BME280;72737;53.332;6.514;2023-12-04T12:59:27;100659.28;;;13.71;55.54
82951;BME280;72737;53.332;6.514;2023-12-04T13:01:52;100657.94;;;13.68;56.24
82951;BME280;72737;53.332;6.514;2023-12-04T13:04:18;100648.44;;;13.66;55.69
82951;BME280;72737;53.332;6.514;2023-12-04T13:06:44;100638.81;;;13.68;55.54
82951;BME280;72737;53.332;6.514;2023-12-04T13:09:09;100648.78;;;13.59;56.07
82951;BME280;72737;53.332;6.514;2023-12-04T13:11:43;100638.13;;;13.63;55.49
82951;BME280;72737;53.332;6.514;2023-12-04T13:14:09;100629.59;;;13.64;55.91
82951;BME280;72737;53.332;6.514;2023-12-04T13:16:34;100625.84;;;13.60;56.10
82951;BME280;72737;53.332;6.514;2023-12-04T13:18:59;100628.56;;;13.60;55.47
82951;BME280;72737;53.332;6.514;2023-12-04T13:21:25;100621.56;;;13.54;55.60
82951;BME280;72737;53.332;6.514;2023-12-04T13:23:50;100632.47;;;13.54;55.94
82951;BME280;72737;53.332;6.514;2023-12-04T13:26:16;100621.56;;;13.54;56.06
82951;BME280;72737;53.332;6.514;2023-12-04T13:28:42;100621.88;;;13.53;56.14
82951;BME280;72737;53.332;6.514;2023-12-04T13:31:07;100614.78;;;13.52;55.33
82951;BME280;72737;53.332;6.514;2023-12-04T13:33:33;100611.75;;;13.53;55.55
82951;BME280;72737;53.332;6.514;2023-12-04T13:35:58;100611.75;;;13.53;55.48
82951;BME280;72737;53.332;6.514;2023-12-04T13:38:24;100604.69;;;13.52;55.44
82951;BME280;72737;53.332;6.514;2023-12-04T13:40:49;100602.53;;;13.49;55.47
82951;BME280;72737;53.332;6.514;2023-12-04T13:43:27;100594.94;;;13.46;55.53
82951;BME280;72737;53.332;6.514;2023-12-04T13:46:11;100593.91;;;13.42;55.39
82951;BME280;72737;53.332;6.514;2023-12-04T13:48:37;100595.50;;;13.43;56.01
82951;BME280;72737;53.332;6.514;2023-12-04T13:51:08;100584.09;;;13.41;56.07
82951;BME280;72737;53.332;6.514;2023-12-04T13:53:34;100583.56;;;13.39;55.47
82951;BME280;72737;53.332;6.514;2023-12-04T13:56:00;100579.72;;;13.40;55.95
82951;BME280;72737;53.332;6.514;2023-12-04T13:58:25;100576.47;;;13.38;55.43
82951;BME280;72737;53.332;6.514;2023-12-04T14:01:11;100575.97;;;13.36;55.51
82951;BME280;72737;53.332;6.514;2023-12-04T14:03:42;100577.06;;;13.35;55.62
82951;BME280;72737;53.332;6.514;2023-12-04T14:06:08;100577.06;;;13.35;55.45
82951;BME280;72737;53.332;6.514;2023-12-04T14:08:35;100567.56;;;13.32;55.56
82951;BME280;72737;53.332;6.514;2023-12-04T14:11:04;100560.25;;;13.28;55.62
82951;BME280;72737;53.332;6.514;2023-12-04T14:13:32;100565.13;;;13.31;55.59
82951;BME280;72737;53.332;6.514;2023-12-04T14:15:58;100563.50;;;13.30;55.46
82951;BME280;72737;53.332;6.514;2023-12-04T14:18:24;100561.94;;;13.24;55.90
82951;BME280;72737;53.332;6.514;2023-12-04T14:20:49;100555.59;;;13.28;56.01
82951;BME280;72737;53.332;6.514;2023-12-04T14:23:14;100556.41;;;13.29;56.00
82951;BME280;72737;53.332;6.514;2023-12-04T14:25:41;100552.72;;;13.20;56.15
82951;BME280;72737;53.332;6.514;2023-12-04T14:28:06;100545.56;;;13.24;56.09
82951;BME280;72737;53.332;6.514;2023-12-04T14:30:32;100539.38;;;13.18;56.24
82951;BME280;72737;53.332;6.514;2023-12-04T14:32:59;100536.56;;;13.23;56.01